Terminal Aerodrome Forecast
Issued by NWS Aberdeen, SD

Current Version | Previous Version | Text Only | Print | Product List | Glossary On
Versions: 1 2 3 4 5 6 7 8 9 10 11 12 13 14 15 16 17 18 19 20 21 22 23 24 25 26 27 28 29 30 31 32 33 34 35 36 37 38 39 40 41 42 43 44 45 46 47 48 49 50
000
FTUS43 KABR 250817 AAB
TAFABR
TAF AMD
KABR 250817Z 2508/2606 19010KT P6SM SKC
      TEMPO 2509/2510 BKN019
     FM251000 27016G24KT P6SM OVC020
     FM251600 30023G33KT P6SM OVC035
     FM252000 31023G34KT P6SM SKC
     FM260100 31015KT P6SM SKC=

USA.gov is the U.S. government's official web portal to all federal, state and local government web resources and services.